Terminal Aerodrome Forecast
Issued by NWS Corpus Christi, TX

Home | Current Version | Previous Version | Text Only | Print | Product List | Glossary On
Versions: 1 2 3 4 5 6 7 8 9 10 11 12 13 14 15 16 17
000
FTUS44 KCRP 011700
TAFVCT
TAF
KVCT 011729Z 0118/0218 15009KT P6SM VCSH FEW030 SCT080
     FM012100 15014KT P6SM FEW035
     FM020100 15008KT P6SM SCT020
     FM020800 14006KT P6SM BKN012
     FM021400 15010KT P6SM SCT025=

USA.gov is the U.S. government's official web portal to all federal, state and local government web resources and services.